sensor_id;sensor_type;location;lat;lon;timestamp;temperature;humidity
9219;DHT22;4644;48.858;9.184;2023-04-01T00:00:57;8.50;99.90
9219;DHT22;4644;48.858;9.184;2023-04-01T00:03:25;8.50;99.90
9219;DHT22;4644;48.858;9.184;2023-04-01T00:05:53;8.50;99.90
9219;DHT22;4644;48.858;9.184;2023-04-01T00:08:21;8.50;99.90
9219;DHT22;4644;48.858;9.184;2023-04-01T00:10:48;8.60;99.90
9219;DHT22;4644;48.858;9.184;2023-04-01T00:13:15;8.60;99.90
9219;DHT22;4644;48.858;9.184;2023-04-01T00:15:44;8.60;99.90
9219;DHT22;4644;48.858;9.184;2023-04-01T00:18:11;8.60;99.90
9219;DHT22;4644;48.858;9.184;2023-04-01T00:20:42;8.70;99.90
9219;DHT22;4644;48.858;9.184;2023-04-01T00:23:09;8.60;99.90
9219;DHT22;4644;48.858;9.184;2023-04-01T00:25:36;8.60;99.90
9219;DHT22;4644;48.858;9.184;2023-04-01T00:28:04;8.70;99.90
9219;DHT22;4644;48.858;9.184;2023-04-01T00:30:31;8.60;99.90
9219;DHT22;4644;48.858;9.184;2023-04-01T00:32:59;8.70;99.90
9219;DHT22;4644;48.858;9.184;2023-04-01T00:35:26;8.60;99.90
9219;DHT22;4644;48.858;9.184;2023-04-01T00:37:54;8.60;99.90
9219;DHT22;4644;48.858;9.184;2023-04-01T00:40:25;8.60;99.90
9219;DHT22;4644;48.858;9.184;2023-04-01T00:42:53;8.60;99.90
9219;DHT22;4644;48.858;9.184;2023-04-01T00:45:27;8.60;99.90
9219;DHT22;4644;48.858;9.184;2023-04-01T00:47:54;8.60;99.90
9219;DHT22;4644;48.858;9.184;2023-04-01T00:50:25;8.60;99.90
9219;DHT22;4644;48.858;9.184;2023-04-01T00:52:53;8.70;99.90
9219;DHT22;4644;48.858;9.184;2023-04-01T00:55:21;8.70;99.90
9219;DHT22;4644;48.858;9.184;2023-04-01T00:57:51;8.70;99.90
9219;DHT22;4644;48.858;9.184;2023-04-01T01:00:20;8.70;99.90
9219;DHT22;4644;48.858;9.184;2023-04-01T01:02:48;8.70;99.90
9219;DHT22;4644;48.858;9.184;2023-04-01T01:05:19;8.70;99.90
9219;DHT22;4644;48.858;9.184;2023-04-01T01:07:56;8.80;99.90
9219;DHT22;4644;48.858;9.184;2023-04-01T01:10:30;8.80;99.90
9219;DHT22;4644;48.858;9.184;2023-04-01T01:13:03;8.80;99.90
9219;DHT22;4644;48.858;9.184;2023-04-01T01:15:36;8.80;99.90
9219;DHT22;4644;48.858;9.184;2023-04-01T01:18:09;8.80;99.90
9219;DHT22;4644;48.858;9.184;2023-04-01T01:21:14;8.90;99.90
9219;DHT22;4644;48.858;9.184;2023-04-01T01:24:25;8.90;99.90
9219;DHT22;4644;48.858;9.184;2023-04-01T01:26:59;8.90;99.90
9219;DHT22;4644;48.858;9.184;2023-04-01T01:33:15;8.90;99.90
9219;DHT22;4644;48.858;9.184;2023-04-01T01:35:48;8.90;99.90
9219;DHT22;4644;48.858;9.184;2023-04-01T01:38:18;8.80;99.90
9219;DHT22;4644;48.858;9.184;2023-04-01T01:40:48;8.80;99.90
9219;DHT22;4644;48.858;9.184;2023-04-01T01:43:23;8.80;99.90
9219;DHT22;4644;48.858;9.184;2023-04-01T01:45:53;8.80;99.90
9219;DHT22;4644;48.858;9.184;2023-04-01T01:48:23;8.80;99.90
9219;DHT22;4644;48.858;9.184;2023-04-01T01:50:53;8.70;99.90
9219;DHT22;4644;48.858;9.184;2023-04-01T01:53:20;8.70;99.90
9219;DHT22;4644;48.858;9.184;2023-04-01T01:55:48;8.70;99.90
9219;DHT22;4644;48.858;9.184;2023-04-01T01:58:19;8.70;99.90
9219;DHT22;4644;48.858;9.184;2023-04-01T02:00:50;8.60;99.90
9219;DHT22;4644;48.858;9.184;2023-04-01T02:03:17;8.60;99.90
9219;DHT22;4644;48.858;9.184;2023-04-01T02:05:47;8.60;99.90
9219;DHT22;4644;48.858;9.184;2023-04-01T02:08:18;8.50;99.90
9219;DHT22;4644;48.858;9.184;2023-04-01T02:10:51;8.60;99.90
9219;DHT22;4644;48.858;9.184;2023-04-01T02:13:26;8.60;99.90
9219;DHT22;4644;48.858;9.184;2023-04-01T02:15:57;8.50;99.90
9219;DHT22;4644;48.858;9.184;2023-04-01T02:18:26;8.50;99.90
9219;DHT22;4644;48.858;9.184;2023-04-01T02:20:56;8.60;99.90
9219;DHT22;4644;48.858;9.184;2023-04-01T02:23:25;8.50;99.90
9219;DHT22;4644;48.858;9.184;2023-04-01T02:25:53;8.50;99.90
9219;DHT22;4644;48.858;9.184;2023-04-01T02:28:22;8.50;99.90
9219;DHT22;4644;48.858;9.184;2023-04-01T02:30:50;8.40;99.90
9219;DHT22;4644;48.858;9.184;2023-04-01T02:33:19;8.40;99.90
9219;DHT22;4644;48.858;9.184;2023-04-01T02:35:47;8.40;99.90
9219;DHT22;4644;48.858;9.184;2023-04-01T02:38:14;8.40;99.90
9219;DHT22;4644;48.858;9.184;2023-04-01T02:40:48;8.30;99.90
9219;DHT22;4644;48.858;9.184;2023-04-01T02:43:17;8.30;99.90
9219;DHT22;4644;48.858;9.184;2023-04-01T02:45:45;8.30;99.90
9219;DHT22;4644;48.858;9.184;2023-04-01T02:48:12;8.30;99.90
9219;DHT22;4644;48.858;9.184;2023-04-01T02:50:39;8.30;99.90
9219;DHT22;4644;48.858;9.184;2023-04-01T02:53:06;8.40;99.90
9219;DHT22;4644;48.858;9.184;2023-04-01T02:55:33;8.40;99.90
9219;DHT22;4644;48.858;9.184;2023-04-01T02:58:02;8.40;99.90
9219;DHT22;4644;48.858;9.184;2023-04-01T03:00:29;8.30;99.90
9219;DHT22;4644;48.858;9.184;2023-04-01T03:02:56;8.40;99.90
9219;DHT22;4644;48.858;9.184;2023-04-01T03:05:23;8.30;99.90
9219;DHT22;4644;48.858;9.184;2023-04-01T03:07:50;8.30;99.90
9219;DHT22;4644;48.858;9.184;2023-04-01T03:10:17;8.30;99.90
9219;DHT22;4644;48.858;9.184;2023-04-01T03:12:44;8.40;99.90
9219;DHT22;4644;48.858;9.184;2023-04-01T03:15:13;8.40;99.90
9219;DHT22;4644;48.858;9.184;2023-04-01T03:17:41;8.40;99.90
9219;DHT22;4644;48.858;9.184;2023-04-01T03:20:10;8.40;99.90
9219;DHT22;4644;48.858;9.184;2023-04-01T03:22:37;8.40;99.90
9219;DHT22;4644;48.858;9.184;2023-04-01T03:25:06;8.40;99.90
9219;DHT22;4644;48.858;9.184;2023-04-01T03:27:34;8.30;99.90
9219;DHT22;4644;48.858;9.184;2023-04-01T03:30:01;8.30;99.90
9219;DHT22;4644;48.858;9.184;2023-04-01T03:32:30;8.20;99.90
9219;DHT22;4644;48.858;9.184;2023-04-01T03:34:57;8.10;99.90
9219;DHT22;4644;48.858;9.184;2023-04-01T03:37:24;8.10;99.90
9219;DHT22;4644;48.858;9.184;2023-04-01T03:39:51;8.00;99.90
9219;DHT22;4644;48.858;9.184;2023-04-01T03:42:18;8.00;99.90
9219;DHT22;4644;48.858;9.184;2023-04-01T03:44:48;8.00;99.90
9219;DHT22;4644;48.858;9.184;2023-04-01T03:47:15;8.00;99.90
9219;DHT22;4644;48.858;9.184;2023-04-01T03:49:44;8.00;99.90
9219;DHT22;4644;48.858;9.184;2023-04-01T03:52:11;8.00;99.90
9219;DHT22;4644;48.858;9.184;2023-04-01T03:54:38;8.00;99.90
9219;DHT22;4644;48.858;9.184;2023-04-01T03:57:05;8.00;99.90
9219;DHT22;4644;48.858;9.184;2023-04-01T03:59:32;8.00;99.90
9219;DHT22;4644;48.858;9.184;2023-04-01T04:02:00;8.00;99.90
9219;DHT22;4644;48.858;9.184;2023-04-01T04:04:27;8.00;99.90
9219;DHT22;4644;48.858;9.184;2023-04-01T04:06:56;8.00;99.90
9219;DHT22;4644;48.858;9.184;2023-04-01T04:09:23;8.00;99.90
9219;DHT22;4644;48.858;9.184;2023-04-01T04:11:51;8.00;99.90
9219;DHT22;4644;48.858;9.184;2023-04-01T04:14:18;8.00;99.90
9219;DHT22;4644;48.858;9.184;2023-04-01T04:16:45;8.00;99.90
9219;DHT22;4644;48.858;9.184;2023-04-01T04:19:12;8.00;99.90
9219;DHT22;4644;48.858;9.184;2023-04-01T04:21:41;8.00;99.90
9219;DHT22;4644;48.858;9.184;2023-04-01T04:24:09;8.10;99.90
9219;DHT22;4644;48.858;9.184;2023-04-01T04:26:36;8.10;99.90
9219;DHT22;4644;48.858;9.184;2023-04-01T04:29:06;8.20;99.90
9219;DHT22;4644;48.858;9.184;2023-04-01T04:31:33;8.20;99.90
9219;DHT22;4644;48.858;9.184;2023-04-01T04:34:00;8.20;99.90
9219;DHT22;4644;48.858;9.184;2023-04-01T04:36:27;8.20;99.90
9219;DHT22;4644;48.858;9.184;2023-04-01T04:38:54;8.10;99.90
9219;DHT22;4644;48.858;9.184;2023-04-01T04:41:24;8.10;99.90
9219;DHT22;4644;48.858;9.184;2023-04-01T04:43:53;8.20;99.90
9219;DHT22;4644;48.858;9.184;2023-04-01T04:46:21;8.20;99.90
9219;DHT22;4644;48.858;9.184;2023-04-01T04:48:49;8.20;99.90
9219;DHT22;4644;48.858;9.184;2023-04-01T04:51:16;8.20;99.90
9219;DHT22;4644;48.858;9.184;2023-04-01T04:53:47;8.30;99.90
9219;DHT22;4644;48.858;9.184;2023-04-01T04:56:17;8.20;99.90
9219;DHT22;4644;48.858;9.184;2023-04-01T04:58:46;8.10;99.90
9219;DHT22;4644;48.858;9.184;2023-04-01T05:01:15;8.10;99.90
9219;DHT22;4644;48.858;9.184;2023-04-01T05:03:43;8.10;99.90
9219;DHT22;4644;48.858;9.184;2023-04-01T05:06:13;8.10;99.90
9219;DHT22;4644;48.858;9.184;2023-04-01T05:08:40;8.10;99.90
9219;DHT22;4644;48.858;9.184;2023-04-01T05:11:10;8.10;99.90
9219;DHT22;4644;48.858;9.184;2023-04-01T05:13:38;8.10;99.90
9219;DHT22;4644;48.858;9.184;2023-04-01T05:16:09;8.10;99.90
9219;DHT22;4644;48.858;9.184;2023-04-01T05:18:36;8.10;99.90
9219;DHT22;4644;48.858;9.184;2023-04-01T05:21:04;8.10;99.90
9219;DHT22;4644;48.858;9.184;2023-04-01T05:23:31;8.10;99.90
9219;DHT22;4644;48.858;9.184;2023-04-01T05:25:58;8.10;99.90
9219;DHT22;4644;48.858;9.184;2023-04-01T05:28:25;8.00;99.90
9219;DHT22;4644;48.858;9.184;2023-04-01T05:30:52;8.00;99.90
9219;DHT22;4644;48.858;9.184;2023-04-01T05:33:21;7.90;99.90
9219;DHT22;4644;48.858;9.184;2023-04-01T05:35:48;8.00;99.90
9219;DHT22;4644;48.858;9.184;2023-04-01T05:38:15;7.90;99.90
9219;DHT22;4644;48.858;9.184;2023-04-01T05:40:42;8.00;99.90
9219;DHT22;4644;48.858;9.184;2023-04-01T05:43:09;8.00;99.90
9219;DHT22;4644;48.858;9.184;2023-04-01T05:45:36;8.00;99.90
9219;DHT22;4644;48.858;9.184;2023-04-01T05:48:03;8.00;99.90
9219;DHT22;4644;48.858;9.184;2023-04-01T05:50:32;8.10;99.90
9219;DHT22;4644;48.858;9.184;2023-04-01T05:52:59;8.20;99.90
9219;DHT22;4644;48.858;9.184;2023-04-01T05:55:26;8.30;99.90
9219;DHT22;4644;48.858;9.184;2023-04-01T05:57:53;8.40;99.90
9219;DHT22;4644;48.858;9.184;2023-04-01T06:00:20;8.40;99.90
9219;DHT22;4644;48.858;9.184;2023-04-01T06:02:47;8.50;99.90
9219;DHT22;4644;48.858;9.184;2023-04-01T06:05:17;8.60;99.90
9219;DHT22;4644;48.858;9.184;2023-04-01T06:07:46;8.70;99.90
9219;DHT22;4644;48.858;9.184;2023-04-01T06:10:15;8.80;99.90
9219;DHT22;4644;48.858;9.184;2023-04-01T06:12:51;8.90;99.90
9219;DHT22;4644;48.858;9.184;2023-04-01T06:15:38;9.10;99.90
9219;DHT22;4644;48.858;9.184;2023-04-01T06:18:45;9.10;99.90
9219;DHT22;4644;48.858;9.184;2023-04-01T06:21:46;9.20;99.90
9219;DHT22;4644;48.858;9.184;2023-04-01T06:24:37;9.20;99.90
9219;DHT22;4644;48.858;9.184;2023-04-01T06:27:16;9.30;99.90
9219;DHT22;4644;48.858;9.184;2023-04-01T06:30:06;9.30;99.90
9219;DHT22;4644;48.858;9.184;2023-04-01T06:35:35;9.40;99.90
9219;DHT22;4644;48.858;9.184;2023-04-01T06:41:36;9.50;99.90
9219;DHT22;4644;48.858;9.184;2023-04-01T06:44:13;9.50;99.90
9219;DHT22;4644;48.858;9.184;2023-04-01T06:46:45;9.50;99.90
9219;DHT22;4644;48.858;9.184;2023-04-01T06:49:31;9.60;99.90
9219;DHT22;4644;48.858;9.184;2023-04-01T06:52:05;9.60;99.90
9219;DHT22;4644;48.858;9.184;2023-04-01T06:54:37;9.60;99.90
9219;DHT22;4644;48.858;9.184;2023-04-01T06:57:14;9.60;99.90
9219;DHT22;4644;48.858;9.184;2023-04-01T06:59:45;9.50;99.90
9219;DHT22;4644;48.858;9.184;2023-04-01T07:02:22;9.50;99.90
9219;DHT22;4644;48.858;9.184;2023-04-01T07:04:51;9.50;99.90
9219;DHT22;4644;48.858;9.184;2023-04-01T07:07:29;9.60;99.90
9219;DHT22;4644;48.858;9.184;2023-04-01T07:09:58;9.70;99.90
9219;DHT22;4644;48.858;9.184;2023-04-01T07:12:36;9.60;99.90
9219;DHT22;4644;48.858;9.184;2023-04-01T07:15:14;9.60;99.90
9219;DHT22;4644;48.858;9.184;2023-04-01T07:17:46;9.60;99.90
9219;DHT22;4644;48.858;9.184;2023-04-01T07:20:17;9.60;99.90
9219;DHT22;4644;48.858;9.184;2023-04-01T07:22:49;9.70;99.90
9219;DHT22;4644;48.858;9.184;2023-04-01T07:25:18;9.60;99.90
9219;DHT22;4644;48.858;9.184;2023-04-01T07:27:48;9.60;99.90
9219;DHT22;4644;48.858;9.184;2023-04-01T07:30:17;9.60;99.90
9219;DHT22;4644;48.858;9.184;2023-04-01T07:32:48;9.60;99.90
9219;DHT22;4644;48.858;9.184;2023-04-01T07:35:24;9.60;99.90
9219;DHT22;4644;48.858;9.184;2023-04-01T07:38:00;9.50;99.90
9219;DHT22;4644;48.858;9.184;2023-04-01T07:40:35;9.60;99.90
9219;DHT22;4644;48.858;9.184;2023-04-01T07:43:16;9.60;99.90
9219;DHT22;4644;48.858;9.184;2023-04-01T07:45:51;9.60;99.90
9219;DHT22;4644;48.858;9.184;2023-04-01T07:48:25;9.70;99.90
9219;DHT22;4644;48.858;9.184;2023-04-01T07:51:02;9.70;99.90
9219;DHT22;4644;48.858;9.184;2023-04-01T07:53:35;9.70;99.90
9219;DHT22;4644;48.858;9.184;2023-04-01T07:56:07;9.70;99.90
9219;DHT22;4644;48.858;9.184;2023-04-01T07:58:45;9.70;99.90
9219;DHT22;4644;48.858;9.184;2023-04-01T08:01:17;9.80;99.90
9219;DHT22;4644;48.858;9.184;2023-04-01T08:04:04;9.80;99.90
9219;DHT22;4644;48.858;9.184;2023-04-01T08:06:39;9.90;99.90
9219;DHT22;4644;48.858;9.184;2023-04-01T08:09:14;9.90;99.90
9219;DHT22;4644;48.858;9.184;2023-04-01T08:11:55;10.00;99.90
9219;DHT22;4644;48.858;9.184;2023-04-01T08:14:35;10.00;99.90
9219;DHT22;4644;48.858;9.184;2023-04-01T08:17:10;10.10;99.90
9219;DHT22;4644;48.858;9.184;2023-04-01T08:19:53;10.10;99.90
9219;DHT22;4644;48.858;9.184;2023-04-01T08:22:27;10.10;99.90
9219;DHT22;4644;48.858;9.184;2023-04-01T08:24:56;10.20;99.90
9219;DHT22;4644;48.858;9.184;2023-04-01T08:27:33;10.20;99.90
9219;DHT22;4644;48.858;9.184;2023-04-01T08:30:14;10.10;99.90
9219;DHT22;4644;48.858;9.184;2023-04-01T08:32:47;10.20;99.90
9219;DHT22;4644;48.858;9.184;2023-04-01T08:35:19;10.10;99.90
9219;DHT22;4644;48.858;9.184;2023-04-01T08:37:48;10.20;99.90
9219;DHT22;4644;48.858;9.184;2023-04-01T08:43:14;9.90;99.90
9219;DHT22;4644;48.858;9.184;2023-04-01T08:45:56;9.70;99.90
9219;DHT22;4644;48.858;9.184;2023-04-01T08:48:42;9.40;99.90
9219;DHT22;4644;48.858;9.184;2023-04-01T08:54:29;8.70;99.90
9219;DHT22;4644;48.858;9.184;2023-04-01T08:57:06;8.50;99.90
9219;DHT22;4644;48.858;9.184;2023-04-01T08:59:50;8.40;99.90
9219;DHT22;4644;48.858;9.184;2023-04-01T09:05:31;8.40;99.90
9219;DHT22;4644;48.858;9.184;2023-04-01T09:08:12;8.30;99.90
9219;DHT22;4644;48.858;9.184;2023-04-01T09:11:04;8.30;99.90
9219;DHT22;4644;48.858;9.184;2023-04-01T09:13:56;8.30;99.90
9219;DHT22;4644;48.858;9.184;2023-04-01T09:16:38;8.40;99.90
9219;DHT22;4644;48.858;9.184;2023-04-01T09:19:21;8.40;99.90
9219;DHT22;4644;48.858;9.184;2023-04-01T09:25:21;8.70;99.90
9219;DHT22;4644;48.858;9.184;2023-04-01T09:27:56;8.90;99.90
9219;DHT22;4644;48.858;9.184;2023-04-01T09:33:49;9.20;99.90
9219;DHT22;4644;48.858;9.184;2023-04-01T09:36:44;9.40;99.90
9219;DHT22;4644;48.858;9.184;2023-04-01T09:39:32;9.40;99.90
9219;DHT22;4644;48.858;9.184;2023-04-01T09:42:33;9.50;99.90
9219;DHT22;4644;48.858;9.184;2023-04-01T09:45:13;9.50;99.90
9219;DHT22;4644;48.858;9.184;2023-04-01T09:47:52;9.50;99.90
9219;DHT22;4644;48.858;9.184;2023-04-01T09:50:32;9.50;99.90
9219;DHT22;4644;48.858;9.184;2023-04-01T09:53:12;9.50;99.90
9219;DHT22;4644;48.858;9.184;2023-04-01T09:56:25;9.50;99.90
9219;DHT22;4644;48.858;9.184;2023-04-01T09:59:31;9.60;99.90
9219;DHT22;4644;48.858;9.184;2023-04-01T10:08:17;9.80;99.90
9219;DHT22;4644;48.858;9.184;2023-04-01T10:11:13;9.80;99.90
9219;DHT22;4644;48.858;9.184;2023-04-01T10:14:12;9.90;99.90
9219;DHT22;4644;48.858;9.184;2023-04-01T10:17:00;10.00;99.90
9219;DHT22;4644;48.858;9.184;2023-04-01T10:23:15;10.10;99.90
9219;DHT22;4644;48.858;9.184;2023-04-01T10:29:12;10.30;99.90
9219;DHT22;4644;48.858;9.184;2023-04-01T10:42:01;10.40;99.90
9219;DHT22;4644;48.858;9.184;2023-04-01T10:45:03;10.30;99.90
9219;DHT22;4644;48.858;9.184;2023-04-01T10:48:00;10.10;99.90
9219;DHT22;4644;48.858;9.184;2023-04-01T10:51:01;10.00;99.90
9219;DHT22;4644;48.858;9.184;2023-04-01T10:53:41;10.00;99.90
9219;DHT22;4644;48.858;9.184;2023-04-01T10:56:36;10.00;99.90
9219;DHT22;4644;48.858;9.184;2023-04-01T10:59:45;10.00;99.90
9219;DHT22;4644;48.858;9.184;2023-04-01T11:05:55;10.20;99.90
9219;DHT22;4644;48.858;9.184;2023-04-01T11:12:04;10.40;99.90
9219;DHT22;4644;48.858;9.184;2023-04-01T11:24:13;10.70;99.90
9219;DHT22;4644;48.858;9.184;2023-04-01T11:26:57;10.80;99.90
9219;DHT22;4644;48.858;9.184;2023-04-01T11:29:53;10.90;99.90
9219;DHT22;4644;48.858;9.184;2023-04-01T11:38:18;11.10;99.90
9219;DHT22;4644;48.858;9.184;2023-04-01T11:40:52;11.40;99.90
9219;DHT22;4644;48.858;9.184;2023-04-01T11:43:27;11.50;99.90
9219;DHT22;4644;48.858;9.184;2023-04-01T11:46:02;11.70;99.90
9219;DHT22;4644;48.858;9.184;2023-04-01T11:48:55;11.80;99.90
9219;DHT22;4644;48.858;9.184;2023-04-01T11:51:51;11.80;99.90
9219;DHT22;4644;48.858;9.184;2023-04-01T11:54:31;11.60;99.90
9219;DHT22;4644;48.858;9.184;2023-04-01T11:57:12;11.60;99.90
9219;DHT22;4644;48.858;9.184;2023-04-01T11:59:50;11.60;99.90
9219;DHT22;4644;48.858;9.184;2023-04-01T12:02:25;11.60;99.90
9219;DHT22;4644;48.858;9.184;2023-04-01T12:05:08;11.50;99.90
9219;DHT22;4644;48.858;9.184;2023-04-01T12:07:53;11.30;99.90
9219;DHT22;4644;48.858;9.184;2023-04-01T12:10:27;11.00;99.90
9219;DHT22;4644;48.858;9.184;2023-04-01T12:13:02;11.00;99.90
9219;DHT22;4644;48.858;9.184;2023-04-01T12:15:48;11.00;99.90
9219;DHT22;4644;48.858;9.184;2023-04-01T12:18:25;11.20;99.90
9219;DHT22;4644;48.858;9.184;2023-04-01T12:20:59;11.20;99.90
9219;DHT22;4644;48.858;9.184;2023-04-01T12:23:44;11.40;99.90
9219;DHT22;4644;48.858;9.184;2023-04-01T12:26:38;11.50;99.90
9219;DHT22;4644;48.858;9.184;2023-04-01T12:29:39;11.50;99.90
9219;DHT22;4644;48.858;9.184;2023-04-01T12:32:17;11.50;99.90
9219;DHT22;4644;48.858;9.184;2023-04-01T12:34:55;11.60;99.90
9219;DHT22;4644;48.858;9.184;2023-04-01T12:37:33;11.50;99.90
9219;DHT22;4644;48.858;9.184;2023-04-01T12:40:17;11.50;99.90
9219;DHT22;4644;48.858;9.184;2023-04-01T12:43:02;11.40;99.90
9219;DHT22;4644;48.858;9.184;2023-04-01T12:45:32;11.40;99.90
9219;DHT22;4644;48.858;9.184;2023-04-01T12:48:20;11.30;99.90
9219;DHT22;4644;48.858;9.184;2023-04-01T12:51:16;11.30;99.90
9219;DHT22;4644;48.858;9.184;2023-04-01T12:54:28;11.30;99.90
9219;DHT22;4644;48.858;9.184;2023-04-01T12:57:10;11.20;99.90
9219;DHT22;4644;48.858;9.184;2023-04-01T13:00:23;11.20;99.90
9219;DHT22;4644;48.858;9.184;2023-04-01T13:03:02;11.10;99.90
9219;DHT22;4644;48.858;9.184;2023-04-01T13:05:44;11.10;99.90
9219;DHT22;4644;48.858;9.184;2023-04-01T13:08:28;11.20;99.90
9219;DHT22;4644;48.858;9.184;2023-04-01T13:11:07;11.20;99.90
9219;DHT22;4644;48.858;9.184;2023-04-01T13:16:29;11.20;99.90
9219;DHT22;4644;48.858;9.184;2023-04-01T13:19:00;11.20;99.90
9219;DHT22;4644;48.858;9.184;2023-04-01T13:21:50;11.20;99.90
9219;DHT22;4644;48.858;9.184;2023-04-01T13:24:28;11.00;99.90
9219;DHT22;4644;48.858;9.184;2023-04-01T13:27:01;11.00;99.90
9219;DHT22;4644;48.858;9.184;2023-04-01T13:29:34;11.00;99.90
9219;DHT22;4644;48.858;9.184;2023-04-01T13:32:21;11.10;99.90
9219;DHT22;4644;48.858;9.184;2023-04-01T13:35:00;11.20;99.90
9219;DHT22;4644;48.858;9.184;2023-04-01T13:37:51;11.20;99.90
9219;DHT22;4644;48.858;9.184;2023-04-01T13:40:42;11.20;99.90
9219;DHT22;4644;48.858;9.184;2023-04-01T13:43:18;11.20;99.90
9219;DHT22;4644;48.858;9.184;2023-04-01T13:46:08;11.30;99.90
9219;DHT22;4644;48.858;9.184;2023-04-01T13:48:55;11.40;99.90
9219;DHT22;4644;48.858;9.184;2023-04-01T13:51:49;11.40;99.90
9219;DHT22;4644;48.858;9.184;2023-04-01T13:54:35;11.20;99.90
9219;DHT22;4644;48.858;9.184;2023-04-01T13:57:21;11.20;99.90
9219;DHT22;4644;48.858;9.184;2023-04-01T14:00:10;11.10;99.90
9219;DHT22;4644;48.858;9.184;2023-04-01T14:02:57;11.00;99.90
9219;DHT22;4644;48.858;9.184;2023-04-01T14:05:47;10.90;99.90
9219;DHT22;4644;48.858;9.184;2023-04-01T14:08:39;10.80;99.90
9219;DHT22;4644;48.858;9.184;2023-04-01T14:11:16;10.90;99.90
9219;DHT22;4644;48.858;9.184;2023-04-01T14:13:53;11.00;99.90
9219;DHT22;4644;48.858;9.184;2023-04-01T14:19:36;11.20;99.90
9219;DHT22;4644;48.858;9.184;2023-04-01T14:22:17;11.20;99.90
9219;DHT22;4644;48.858;9.184;2023-04-01T14:25:17;11.30;99.90
9219;DHT22;4644;48.858;9.184;2023-04-01T14:27:56;11.20;99.90
9219;DHT22;4644;48.858;9.184;2023-04-01T14:30:42;11.10;99.90
9219;DHT22;4644;48.858;9.184;2023-04-01T14:33:22;11.00;99.90
9219;DHT22;4644;48.858;9.184;2023-04-01T14:36:04;10.90;99.90
9219;DHT22;4644;48.858;9.184;2023-04-01T14:38:48;10.70;99.90
9219;DHT22;4644;48.858;9.184;2023-04-01T14:41:33;10.60;99.90
9219;DHT22;4644;48.858;9.184;2023-04-01T14:44:24;10.60;99.90
9219;DHT22;4644;48.858;9.184;2023-04-01T14:47:22;10.50;99.90
9219;DHT22;4644;48.858;9.184;2023-04-01T14:49:53;10.40;99.90
9219;DHT22;4644;48.858;9.184;2023-04-01T14:52:27;10.30;99.90
9219;DHT22;4644;48.858;9.184;2023-04-01T14:54:57;10.20;99.90
9219;DHT22;4644;48.858;9.184;2023-04-01T14:57:27;10.10;99.90
9219;DHT22;4644;48.858;9.184;2023-04-01T15:00:01;10.00;99.90
9219;DHT22;4644;48.858;9.184;2023-04-01T15:02:46;10.00;99.90
9219;DHT22;4644;48.858;9.184;2023-04-01T15:05:20;10.00;99.90
9219;DHT22;4644;48.858;9.184;2023-04-01T15:08:11;10.10;99.90
9219;DHT22;4644;48.858;9.184;2023-04-01T15:10:58;10.20;99.90
9219;DHT22;4644;48.858;9.184;2023-04-01T15:13:44;10.30;99.90
9219;DHT22;4644;48.858;9.184;2023-04-01T15:16:21;10.40;99.90
9219;DHT22;4644;48.858;9.184;2023-04-01T15:18:56;10.50;99.90
9219;DHT22;4644;48.858;9.184;2023-04-01T15:21:47;10.60;99.90
9219;DHT22;4644;48.858;9.184;2023-04-01T15:24:21;10.60;99.90
9219;DHT22;4644;48.858;9.184;2023-04-01T15:27:11;10.70;99.90
9219;DHT22;4644;48.858;9.184;2023-04-01T15:29:51;10.70;99.90
9219;DHT22;4644;48.858;9.184;2023-04-01T15:32:25;10.70;99.90
9219;DHT22;4644;48.858;9.184;2023-04-01T15:34:58;10.80;99.90
9219;DHT22;4644;48.858;9.184;2023-04-01T15:37:35;10.90;99.90
9219;DHT22;4644;48.858;9.184;2023-04-01T15:40:17;10.80;99.90
9219;DHT22;4644;48.858;9.184;2023-04-01T15:43:05;10.80;99.90
9219;DHT22;4644;48.858;9.184;2023-04-01T15:45:44;10.90;99.90
9219;DHT22;4644;48.858;9.184;2023-04-01T15:48:20;10.80;99.90
9219;DHT22;4644;48.858;9.184;2023-04-01T15:51:30;10.80;99.90
9219;DHT22;4644;48.858;9.184;2023-04-01T15:54:25;10.80;99.90
9219;DHT22;4644;48.858;9.184;2023-04-01T15:57:03;10.70;99.90
9219;DHT22;4644;48.858;9.184;2023-04-01T15:59:57;10.70;99.90
9219;DHT22;4644;48.858;9.184;2023-04-01T16:02:32;10.70;99.90
9219;DHT22;4644;48.858;9.184;2023-04-01T16:05:07;10.70;99.90
9219;DHT22;4644;48.858;9.184;2023-04-01T16:07:52;10.70;99.90
9219;DHT22;4644;48.858;9.184;2023-04-01T16:10:29;10.60;99.90
9219;DHT22;4644;48.858;9.184;2023-04-01T16:13:11;10.60;99.90
9219;DHT22;4644;48.858;9.184;2023-04-01T16:15:50;10.60;99.90
9219;DHT22;4644;48.858;9.184;2023-04-01T16:18:42;10.60;99.90
9219;DHT22;4644;48.858;9.184;2023-04-01T16:21:14;10.60;99.90
9219;DHT22;4644;48.858;9.184;2023-04-01T16:23:49;10.60;99.90
9219;DHT22;4644;48.858;9.184;2023-04-01T16:26:22;10.50;99.90
9219;DHT22;4644;48.858;9.184;2023-04-01T16:28:55;10.50;99.90
9219;DHT22;4644;48.858;9.184;2023-04-01T16:31:32;10.50;99.90
9219;DHT22;4644;48.858;9.184;2023-04-01T16:34:03;10.50;99.90
9219;DHT22;4644;48.858;9.184;2023-04-01T16:36:40;10.50;99.90
9219;DHT22;4644;48.858;9.184;2023-04-01T16:39:27;10.50;99.90
9219;DHT22;4644;48.858;9.184;2023-04-01T16:42:14;10.50;99.90
9219;DHT22;4644;48.858;9.184;2023-04-01T16:44:50;10.50;99.90
9219;DHT22;4644;48.858;9.184;2023-04-01T16:47:21;10.50;99.90
9219;DHT22;4644;48.858;9.184;2023-04-01T16:50:05;10.40;99.90
9219;DHT22;4644;48.858;9.184;2023-04-01T16:52:48;10.40;99.90
9219;DHT22;4644;48.858;9.184;2023-04-01T16:55:20;10.40;99.90
9219;DHT22;4644;48.858;9.184;2023-04-01T16:57:51;10.40;99.90
9219;DHT22;4644;48.858;9.184;2023-04-01T17:00:25;10.40;99.90
9219;DHT22;4644;48.858;9.184;2023-04-01T17:02:58;10.50;99.90
9219;DHT22;4644;48.858;9.184;2023-04-01T17:05:41;10.40;99.90
9219;DHT22;4644;48.858;9.184;2023-04-01T17:08:20;10.40;99.90
9219;DHT22;4644;48.858;9.184;2023-04-01T17:10:53;10.30;99.90
9219;DHT22;4644;48.858;9.184;2023-04-01T17:13:33;10.40;99.90
9219;DHT22;4644;48.858;9.184;2023-04-01T17:16:28;10.30;99.90
9219;DHT22;4644;48.858;9.184;2023-04-01T17:19:06;10.30;99.90
9219;DHT22;4644;48.858;9.184;2023-04-01T17:21:54;10.40;99.90
9219;DHT22;4644;48.858;9.184;2023-04-01T17:24:39;10.30;99.90
9219;DHT22;4644;48.858;9.184;2023-04-01T17:27:21;10.30;99.90
9219;DHT22;4644;48.858;9.184;2023-04-01T17:30:12;10.30;99.90
9219;DHT22;4644;48.858;9.184;2023-04-01T17:32:50;10.30;99.90
9219;DHT22;4644;48.858;9.184;2023-04-01T17:35:27;10.30;99.90
9219;DHT22;4644;48.858;9.184;2023-04-01T17:38:11;10.40;99.90
9219;DHT22;4644;48.858;9.184;2023-04-01T17:40:51;10.30;99.90
9219;DHT22;4644;48.858;9.184;2023-04-01T17:43:27;10.30;99.90
9219;DHT22;4644;48.858;9.184;2023-04-01T17:45:57;10.30;99.90
9219;DHT22;4644;48.858;9.184;2023-04-01T17:48:38;10.40;99.90
9219;DHT22;4644;48.858;9.184;2023-04-01T17:51:19;10.30;99.90
9219;DHT22;4644;48.858;9.184;2023-04-01T17:53:51;10.30;99.90
9219;DHT22;4644;48.858;9.184;2023-04-01T17:56:39;10.30;99.90
9219;DHT22;4644;48.858;9.184;2023-04-01T17:59:17;10.30;99.90
9219;DHT22;4644;48.858;9.184;2023-04-01T18:01:52;10.30;99.90
9219;DHT22;4644;48.858;9.184;2023-04-01T18:04:34;10.20;99.90
9219;DHT22;4644;48.858;9.184;2023-04-01T18:07:30;10.10;99.90
9219;DHT22;4644;48.858;9.184;2023-04-01T18:10:13;10.00;99.90
9219;DHT22;4644;48.858;9.184;2023-04-01T18:12:59;9.90;99.90
9219;DHT22;4644;48.858;9.184;2023-04-01T18:15:37;9.80;99.90
9219;DHT22;4644;48.858;9.184;2023-04-01T18:18:19;9.70;99.90
9219;DHT22;4644;48.858;9.184;2023-04-01T18:21:02;9.60;99.90
9219;DHT22;4644;48.858;9.184;2023-04-01T18:23:38;9.60;99.90
9219;DHT22;4644;48.858;9.184;2023-04-01T18:26:10;9.60;99.90
9219;DHT22;4644;48.858;9.184;2023-04-01T18:28:41;9.60;99.90
9219;DHT22;4644;48.858;9.184;2023-04-01T18:31:14;9.60;99.90